Time;durP1;ratioP1;P1;durP2;ratioP2;P2;SDS_P1;SDS_P2;PMS_P1;PMS_P2;Temp;Humidity;BMP_temperature;BMP_pressure;BME280_temperature;BME280_humidity;BME280_pressure;Samples;Min_cycle;Max_cycle;Signal;HPM_P1;HPM_P2
2023/07/20 00:01:09;;;;;;;10.70;6.80;;;;;;;;;;5068379;28;20126;-68
2023/07/20 00:03:34;;;;;;;7.73;7.03;;;;;;;;;;5071282;28;20507;-68
2023/07/20 00:05:59;;;;;;;11.27;7.43;;;;;;;;;;5069178;28;20541;-67
2023/07/20 00:08:24;;;;;;;12.73;9.87;;;;;;;;;;5069388;28;20032;-68
2023/07/20 00:10:49;;;;;;;9.70;7.38;;;;;;;;;;5070771;28;20523;-68
2023/07/20 00:13:15;;;;;;;9.45;8.48;;;;;;;;;;5069373;28;20029;-68
2023/07/20 00:15:41;;;;;;;8.80;8.00;;;;;;;;;;5070900;28;20032;-68
2023/07/20 00:18:06;;;;;;;11.52;9.50;;;;;;;;;;5068857;28;20032;-68
2023/07/20 00:20:31;;;;;;;9.30;7.82;;;;;;;;;;5071235;28;20028;-68
2023/07/20 00:22:57;;;;;;;16.10;8.93;;;;;;;;;;5069260;28;20033;-68
2023/07/20 00:25:23;;;;;;;10.27;7.97;;;;;;;;;;5070008;28;20439;-67
2023/07/20 00:27:48;;;;;;;10.60;9.50;;;;;;;;;;5069484;28;20116;-67
2023/07/20 00:30:14;;;;;;;10.70;8.85;;;;;;;;;;5070613;28;20028;-67
2023/07/20 00:32:39;;;;;;;10.43;8.88;;;;;;;;;;5069351;28;20040;-67
2023/07/20 00:35:04;;;;;;;10.05;7.75;;;;;;;;;;5058399;28;20400;-67
2023/07/20 00:37:30;;;;;;;9.45;8.45;;;;;;;;;;5049327;28;20040;-67
2023/07/20 00:39:55;;;;;;;11.00;7.77;;;;;;;;;;5051272;28;20017;-67
2023/07/20 00:42:20;;;;;;;11.07;8.68;;;;;;;;;;5048688;28;20440;-67
2023/07/20 00:44:45;;;;;;;11.43;7.93;;;;;;;;;;5050674;28;20017;-67
2023/07/20 00:47:10;;;;;;;11.60;8.70;;;;;;;;;;5048988;28;20090;-66
2023/07/20 00:49:36;;;;;;;9.73;8.57;;;;;;;;;;5050781;28;20099;-67
2023/07/20 00:52:03;;;;;;;9.98;8.95;;;;;;;;;;5069095;28;20049;-66
2023/07/20 00:54:28;;;;;;;9.80;8.27;;;;;;;;;;5070427;28;20031;-67
2023/07/20 00:56:53;;;;;;;10.95;9.63;;;;;;;;;;5068489;28;20037;-66
2023/07/20 00:59:18;;;;;;;12.47;10.53;;;;;;;;;;5070682;28;20027;-65
2023/07/20 01:01:44;;;;;;;17.30;11.80;;;;;;;;;;5069279;28;20447;-65
2023/07/20 01:04:09;;;;;;;13.20;10.15;;;;;;;;;;5068514;28;20445;-65
2023/07/20 01:06:57;;;;;;;13.27;9.77;;;;;;;;;;5069100;28;20095;-65
2023/07/20 01:09:42;;;;;;;15.23;10.03;;;;;;;;;;5070384;28;20020;-65
2023/07/20 01:12:22;;;;;;;13.95;11.82;;;;;;;;;;5068209;28;20044;-65
2023/07/20 01:14:48;;;;;;;16.48;14.88;;;;;;;;;;5070690;28;20109;-68
2023/07/20 01:17:13;;;;;;;14.32;11.90;;;;;;;;;;5068159;28;20064;-66
2023/07/20 01:19:39;;;;;;;16.60;12.75;;;;;;;;;;5070432;28;20379;-65
2023/07/20 01:22:04;;;;;;;17.88;13.07;;;;;;;;;;5070749;28;20044;-66
2023/07/20 01:24:37;;;;;;;18.40;13.80;;;;;;;;;;5073914;28;20028;-65
2023/07/20 01:27:16;;;;;;;16.98;12.88;;;;;;;;;;5072525;28;20040;-66
2023/07/20 01:29:47;;;;;;;17.58;12.40;;;;;;;;;;5074171;28;20062;-66
2023/07/20 01:32:13;;;;;;;14.73;13.02;;;;;;;;;;5072010;28;20041;-65
2023/07/20 01:34:39;;;;;;;18.60;11.60;;;;;;;;;;5074023;28;20541;-66
2023/07/20 01:37:05;;;;;;;14.82;13.23;;;;;;;;;;5071792;28;20411;-65
2023/07/20 01:39:31;;;;;;;14.75;13.32;;;;;;;;;;5073511;28;20024;-65
2023/07/20 01:41:57;;;;;;;17.27;13.60;;;;;;;;;;5072645;28;20032;-65
2023/07/20 01:44:22;;;;;;;14.90;13.40;;;;;;;;;;5073625;28;20105;-66
2023/07/20 01:46:47;;;;;;;18.77;14.50;;;;;;;;;;5072088;28;20499;-66
2023/07/20 01:49:12;;;;;;;16.45;12.65;;;;;;;;;;5073762;28;20028;-66
2023/07/20 01:51:38;;;;;;;15.63;13.20;;;;;;;;;;5072297;28;20073;-66
2023/07/20 01:54:03;;;;;;;20.10;14.07;;;;;;;;;;5072933;28;20514;-66
2023/07/20 01:56:28;;;;;;;15.77;13.33;;;;;;;;;;5072025;28;20041;-66
2023/07/20 01:58:54;;;;;;;16.90;13.80;;;;;;;;;;5073759;28;20767;-65
2023/07/20 02:01:19;;;;;;;17.17;14.52;;;;;;;;;;5071938;28;20028;-66
2023/07/20 02:03:44;;;;;;;15.40;13.73;;;;;;;;;;5073138;28;20052;-66
2023/07/20 02:06:09;;;;;;;14.77;13.20;;;;;;;;;;5071676;28;20021;-65
2023/07/20 02:08:34;;;;;;;13.00;11.63;;;;;;;;;;5073467;28;20020;-66
2023/07/20 02:10:59;;;;;;;14.35;12.23;;;;;;;;;;5071454;28;20028;-66
2023/07/20 02:13:24;;;;;;;14.50;13.03;;;;;;;;;;5073028;28;20489;-67
2023/07/20 02:15:50;;;;;;;11.80;10.60;;;;;;;;;;5073150;28;20035;-67
2023/07/20 02:18:16;;;;;;;14.00;11.02;;;;;;;;;;5071128;28;20446;-67
2023/07/20 02:20:41;;;;;;;13.95;9.85;;;;;;;;;;5073387;28;20575;-66
2023/07/20 02:23:06;;;;;;;13.13;10.55;;;;;;;;;;5071300;28;20035;-66
2023/07/20 02:25:32;;;;;;;12.63;10.95;;;;;;;;;;5071299;28;20381;-65
2023/07/20 02:27:58;;;;;;;12.40;10.63;;;;;;;;;;5071552;28;20033;-65
2023/07/20 02:30:23;;;;;;;10.30;8.88;;;;;;;;;;5072986;28;20475;-65
2023/07/20 02:32:48;;;;;;;10.18;9.18;;;;;;;;;;5070675;28;20492;-66
2023/07/20 02:35:14;;;;;;;10.27;9.20;;;;;;;;;;5072616;28;20049;-68
2023/07/20 02:37:39;;;;;;;11.68;10.23;;;;;;;;;;5070976;28;20036;-66
2023/07/20 02:40:05;;;;;;;10.23;9.27;;;;;;;;;;5072216;28;20379;-66
2023/07/20 02:42:30;;;;;;;11.25;10.18;;;;;;;;;;5071264;28;20044;-66
2023/07/20 02:44:55;;;;;;;11.07;9.97;;;;;;;;;;5072776;28;20017;-67
2023/07/20 02:47:20;;;;;;;10.38;9.25;;;;;;;;;;5070580;28;20037;-66
2023/07/20 02:49:45;;;;;;;13.53;10.73;;;;;;;;;;5072678;28;20021;-67
2023/07/20 02:52:11;;;;;;;10.18;9.15;;;;;;;;;;5070907;28;20458;-65
2023/07/20 02:54:36;;;;;;;12.27;9.93;;;;;;;;;;5072089;28;20028;-65
2023/07/20 02:57:01;;;;;;;14.00;9.70;;;;;;;;;;5070707;28;20451;-66
2023/07/20 02:59:26;;;;;;;12.13;9.85;;;;;;;;;;5072258;28;20013;-66
2023/07/20 03:01:51;;;;;;;10.50;9.48;;;;;;;;;;5070794;28;20060;-66
2023/07/20 03:04:16;;;;;;;10.60;9.52;;;;;;;;;;5072105;28;20151;-66
2023/07/20 03:06:42;;;;;;;10.50;9.43;;;;;;;;;;5070848;28;20495;-65
2023/07/20 03:09:09;;;;;;;13.18;7.20;;;;;;;;;;5071454;28;20039;-66
2023/07/20 03:11:34;;;;;;;9.80;8.52;;;;;;;;;;5071049;28;20037;-65
2023/07/20 03:13:59;;;;;;;9.27;8.37;;;;;;;;;;5071759;28;20035;-65
2023/07/20 03:16:25;;;;;;;9.53;8.47;;;;;;;;;;5070339;28;20443;-64
2023/07/20 03:18:50;;;;;;;10.18;8.20;;;;;;;;;;5072090;28;20024;-65
2023/07/20 03:21:15;;;;;;;8.73;7.97;;;;;;;;;;5070734;28;20094;-67
2023/07/20 03:23:40;;;;;;;9.48;8.48;;;;;;;;;;5071519;28;20017;-66
2023/07/20 03:26:08;;;;;;;8.48;7.47;;;;;;;;;;5070028;28;20104;-65
2023/07/20 03:28:33;;;;;;;9.40;8.20;;;;;;;;;;5071831;28;20391;-64
2023/07/20 03:30:58;;;;;;;9.60;8.60;;;;;;;;;;5069830;28;20023;-63
2023/07/20 03:33:28;;;;;;;8.98;7.97;;;;;;;;;;5071763;28;20352;-64
2023/07/20 03:35:54;;;;;;;8.55;7.40;;;;;;;;;;5071380;28;20064;-64
2023/07/20 03:38:19;;;;;;;12.57;10.23;;;;;;;;;;5069578;28;20063;-65
2023/07/20 03:40:54;;;;;;;8.70;7.90;;;;;;;;;;5071666;28;20020;-65
2023/07/20 03:43:20;;;;;;;10.75;8.38;;;;;;;;;;5069046;28;20037;-65
2023/07/20 03:45:47;;;;;;;9.23;8.05;;;;;;;;;;5071352;28;20020;-65
2023/07/20 03:48:12;;;;;;;10.90;8.52;;;;;;;;;;5069852;28;20036;-64
2023/07/20 03:50:38;;;;;;;9.07;8.17;;;;;;;;;;5071723;28;20021;-64
2023/07/20 03:53:03;;;;;;;12.90;9.20;;;;;;;;;;5069297;28;20146;-64
2023/07/20 03:55:28;;;;;;;10.80;8.57;;;;;;;;;;5071162;28;20013;-65
2023/07/20 03:57:53;;;;;;;9.07;7.95;;;;;;;;;;5069846;28;20783;-65
2023/07/20 04:00:18;;;;;;;8.98;8.02;;;;;;;;;;5070823;28;20048;-65
2023/07/20 04:02:43;;;;;;;9.10;8.20;;;;;;;;;;5069811;28;20082;-65
2023/07/20 04:05:09;;;;;;;9.30;8.40;;;;;;;;;;5070765;28;20501;-65
2023/07/20 04:07:34;;;;;;;10.43;8.37;;;;;;;;;;5068958;28;20040;-65
2023/07/20 04:09:59;;;;;;;8.53;7.63;;;;;;;;;;5071086;28;20435;-65
2023/07/20 04:12:24;;;;;;;10.35;9.30;;;;;;;;;;5068639;28;20135;-65
2023/07/20 04:14:49;;;;;;;8.90;8.13;;;;;;;;;;5069488;28;20031;-65
2023/07/20 04:17:14;;;;;;;10.13;9.13;;;;;;;;;;5069049;28;20040;-65
2023/07/20 04:19:39;;;;;;;11.93;9.15;;;;;;;;;;5070682;28;20028;-65
2023/07/20 04:22:05;;;;;;;11.40;9.37;;;;;;;;;;5068522;28;20028;-64
2023/07/20 04:24:30;;;;;;;11.43;10.23;;;;;;;;;;5070085;28;20043;-64
2023/07/20 04:26:55;;;;;;;9.67;8.70;;;;;;;;;;5062776;28;20032;-64
2023/07/20 04:29:20;;;;;;;8.68;7.88;;;;;;;;;;5059636;28;20009;-64
2023/07/20 04:31:45;;;;;;;11.00;9.90;;;;;;;;;;5065882;28;20496;-63
2023/07/20 04:34:10;;;;;;;10.40;9.33;;;;;;;;;;5070663;28;20419;-66
2023/07/20 04:36:36;;;;;;;14.03;11.50;;;;;;;;;;5069176;28;20052;-66
2023/07/20 04:39:01;;;;;;;10.30;9.03;;;;;;;;;;5069766;28;20021;-66
2023/07/20 04:41:26;;;;;;;11.10;10.00;;;;;;;;;;5068797;28;20123;-67
2023/07/20 04:43:51;;;;;;;11.90;9.95;;;;;;;;;;5070569;28;20537;-66
2023/07/20 04:46:18;;;;;;;10.93;9.82;;;;;;;;;;5068721;28;20057;-66
2023/07/20 04:48:43;;;;;;;11.90;10.55;;;;;;;;;;5070996;28;20024;-66
2023/07/20 04:51:10;;;;;;;19.33;10.98;;;;;;;;;;5068864;28;20024;-66
2023/07/20 04:53:35;;;;;;;11.32;9.80;;;;;;;;;;5070366;28;20036;-66
2023/07/20 04:56:00;;;;;;;9.82;8.82;;;;;;;;;;5072202;28;20463;-66
2023/07/20 04:58:25;;;;;;;10.70;9.60;;;;;;;;;;5075152;28;20025;-66
2023/07/20 05:00:51;;;;;;;9.75;8.70;;;;;;;;;;5074360;28;20451;-66
2023/07/20 05:03:16;;;;;;;10.88;9.80;;;;;;;;;;5072850;28;20053;-66
2023/07/20 05:05:41;;;;;;;9.40;8.50;;;;;;;;;;5074530;28;20012;-66
2023/07/20 05:08:07;;;;;;;11.20;10.10;;;;;;;;;;5072571;28;20085;-65
2023/07/20 05:10:32;;;;;;;10.20;9.13;;;;;;;;;;5074500;28;20558;-65
2023/07/20 05:12:57;;;;;;;10.75;9.75;;;;;;;;;;5072931;28;20454;-66
2023/07/20 05:15:22;;;;;;;10.68;9.70;;;;;;;;;;5074008;28;20024;-67
2023/07/20 05:17:48;;;;;;;9.57;8.68;;;;;;;;;;5072843;28;20501;-66
2023/07/20 05:20:13;;;;;;;11.10;7.80;;;;;;;;;;5074351;28;20032;-66
2023/07/20 05:22:40;;;;;;;10.37;9.30;;;;;;;;;;5072557;28;20040;-67
2023/07/20 05:25:08;;;;;;;11.63;9.75;;;;;;;;;;5074006;28;20434;-66
2023/07/20 05:27:33;;;;;;;;;;;;;;;;;;5072957;28;20040;-66
2023/07/20 05:29:58;;;;;;;8.88;8.07;;;;;;;;;;5073546;28;19982;-66
2023/07/20 05:32:24;;;;;;;9.83;8.90;;;;;;;;;;5072495;28;20120;-65
2023/07/20 05:34:51;;;;;;;8.50;7.57;;;;;;;;;;5073982;28;20021;-65
2023/07/20 05:37:16;;;;;;;8.70;7.90;;;;;;;;;;5071933;28;20143;-66
2023/07/20 05:39:41;;;;;;;11.80;8.07;;;;;;;;;;5072659;28;20514;-66
2023/07/20 05:42:07;;;;;;;8.73;7.93;;;;;;;;;;5071722;28;20098;-66
2023/07/20 05:44:32;;;;;;;11.38;9.05;;;;;;;;;;5073350;28;20021;-66
2023/07/20 05:46:57;;;;;;;11.32;10.13;;;;;;;;;;5072373;28;20059;-66
2023/07/20 05:49:22;;;;;;;11.43;10.33;;;;;;;;;;5073497;28;20020;-66
2023/07/20 05:51:47;;;;;;;11.95;10.70;;;;;;;;;;5072097;28;20438;-66
2023/07/20 05:54:13;;;;;;;12.37;11.13;;;;;;;;;;5073165;28;20048;-66
2023/07/20 05:56:38;;;;;;;10.73;9.67;;;;;;;;;;5072065;28;20450;-65
2023/07/20 05:59:03;;;;;;;11.75;10.55;;;;;;;;;;5073107;28;20967;-65
2023/07/20 06:01:28;;;;;;;13.70;12.30;;;;;;;;;;5070878;28;20040;-65
2023/07/20 06:03:53;;;;;;;12.10;10.90;;;;;;;;;;5056034;28;20032;-65
2023/07/20 06:06:18;;;;;;;9.70;8.70;;;;;;;;;;5050805;28;20540;-65
2023/07/20 06:08:44;;;;;;;11.43;10.33;;;;;;;;;;5053236;28;20013;-66
2023/07/20 06:11:09;;;;;;;9.77;8.88;;;;;;;;;;5051814;28;20560;-65
2023/07/20 06:13:34;;;;;;;10.40;8.98;;;;;;;;;;5052985;28;20021;-66
2023/07/20 06:15:59;;;;;;;10.30;9.30;;;;;;;;;;5051531;28;20434;-65
2023/07/20 06:18:25;;;;;;;14.02;10.63;;;;;;;;;;5053411;28;20044;-66
2023/07/20 06:20:50;;;;;;;8.23;7.50;;;;;;;;;;5066908;28;20479;-66
2023/07/20 06:23:16;;;;;;;15.15;9.07;;;;;;;;;;5062597;28;20056;-66
2023/07/20 06:25:41;;;;;;;15.07;9.02;;;;;;;;;;5060353;28;20039;-66
2023/07/20 06:28:06;;;;;;;9.23;8.32;;;;;;;;;;5070065;28;20052;-66
2023/07/20 06:30:33;;;;;;;7.70;6.90;;;;;;;;;;5072997;28;20062;-66
2023/07/20 06:32:59;;;;;;;9.10;8.25;;;;;;;;;;5070269;28;20094;-66
2023/07/20 06:35:24;;;;;;;8.38;7.47;;;;;;;;;;5072204;28;20037;-67
2023/07/20 06:37:49;;;;;;;8.10;7.40;;;;;;;;;;5064612;28;20044;-66
2023/07/20 06:40:15;;;;;;;7.37;6.67;;;;;;;;;;5072032;28;20016;-66
2023/07/20 06:42:40;;;;;;;7.83;7.13;;;;;;;;;;5070963;28;20123;-66
2023/07/20 06:45:05;;;;;;;7.32;6.63;;;;;;;;;;5071954;28;20530;-66
2023/07/20 06:47:30;;;;;;;6.15;5.65;;;;;;;;;;5070287;28;20059;-66
2023/07/20 06:49:55;;;;;;;6.95;5.03;;;;;;;;;;5072617;28;20016;-65
2023/07/20 06:52:21;;;;;;;6.57;5.93;;;;;;;;;;5070409;28;20442;-65
2023/07/20 06:54:46;;;;;;;5.93;5.43;;;;;;;;;;5072507;28;20797;-66
2023/07/20 06:57:11;;;;;;;6.87;5.53;;;;;;;;;;5070780;28;20093;-66
2023/07/20 06:59:36;;;;;;;4.90;4.50;;;;;;;;;;5070798;28;20461;-66
2023/07/20 07:02:01;;;;;;;4.80;4.10;;;;;;;;;;5067006;28;20032;-67
2023/07/20 07:04:27;;;;;;;8.10;4.27;;;;;;;;;;5071196;28;20028;-66
2023/07/20 07:06:52;;;;;;;4.90;3.05;;;;;;;;;;5070215;28;20466;-66
2023/07/20 07:09:18;;;;;;;5.57;4.53;;;;;;;;;;5053398;28;20025;-66
2023/07/20 07:11:44;;;;;;;4.32;3.97;;;;;;;;;;5050724;28;20037;-66
2023/07/20 07:14:09;;;;;;;3.83;3.38;;;;;;;;;;5051748;28;20021;-66
2023/07/20 07:16:34;;;;;;;5.87;2.93;;;;;;;;;;5050747;28;20033;-66
2023/07/20 07:18:59;;;;;;;3.73;3.40;;;;;;;;;;5050669;28;20464;-66
2023/07/20 07:21:25;;;;;;;5.57;2.93;;;;;;;;;;5066498;28;20040;-66
2023/07/20 07:23:52;;;;;;;5.85;3.38;;;;;;;;;;5071728;28;20040;-66
2023/07/20 07:26:18;;;;;;;6.97;2.70;;;;;;;;;;5070407;28;20127;-66
2023/07/20 07:28:43;;;;;;;8.60;4.57;;;;;;;;;;5071320;28;20051;-66
2023/07/20 07:31:09;;;;;;;4.17;3.47;;;;;;;;;;5069545;28;20020;-66
2023/07/20 07:33:35;;;;;;;3.13;2.42;;;;;;;;;;5070114;28;20447;-66
2023/07/20 07:36:00;;;;;;;2.42;1.92;;;;;;;;;;5068822;28;20064;-65
2023/07/20 07:38:25;;;;;;;3.80;2.03;;;;;;;;;;5071698;28;20016;-66
2023/07/20 07:40:50;;;;;;;2.20;2.00;;;;;;;;;;5071514;28;20016;-66
2023/07/20 07:43:15;;;;;;;2.80;2.07;;;;;;;;;;5069399;28;20491;-66
2023/07/20 07:45:41;;;;;;;2.43;1.80;;;;;;;;;;5071364;28;20017;-66
2023/07/20 07:48:06;;;;;;;3.35;2.28;;;;;;;;;;5069715;28;20173;-66
2023/07/20 07:50:32;;;;;;;2.47;1.70;;;;;;;;;;5071070;28;20048;-66
2023/07/20 07:52:57;;;;;;;3.58;2.33;;;;;;;;;;5069825;28;20032;-66
2023/07/20 07:55:22;;;;;;;1.85;1.73;;;;;;;;;;5070850;28;20015;-66
2023/07/20 07:57:47;;;;;;;3.53;1.67;;;;;;;;;;5069205;28;20166;-66
2023/07/20 08:00:14;;;;;;;1.50;1.40;;;;;;;;;;5071111;28;20016;-67
2023/07/20 08:02:40;;;;;;;1.30;1.20;;;;;;;;;;5069887;28;20113;-66
2023/07/20 08:05:05;;;;;;;2.05;1.95;;;;;;;;;;5070571;28;20039;-66
2023/07/20 08:07:30;;;;;;;1.27;1.17;;;;;;;;;;5069795;28;20062;-67
2023/07/20 08:09:55;;;;;;;1.40;1.30;;;;;;;;;;5070948;28;20025;-66
2023/07/20 08:12:20;;;;;;;1.88;1.13;;;;;;;;;;5069114;28;20550;-66
2023/07/20 08:14:46;;;;;;;1.77;1.30;;;;;;;;;;5071117;28;20017;-66
2023/07/20 08:17:11;;;;;;;3.13;0.90;;;;;;;;;;5067851;28;20037;-66
2023/07/20 08:19:37;;;;;;;1.23;1.23;;;;;;;;;;5067395;28;20025;-66
2023/07/20 08:22:02;;;;;;;5.40;1.27;;;;;;;;;;5048974;28;20068;-66
2023/07/20 08:24:27;;;;;;;1.08;0.90;;;;;;;;;;5050882;28;20048;-66
2023/07/20 08:26:53;;;;;;;3.63;1.20;;;;;;;;;;5048903;28;20052;-66
2023/07/20 08:29:18;;;;;;;4.07;1.30;;;;;;;;;;5050270;28;20439;-67
2023/07/20 08:31:43;;;;;;;10.20;1.47;;;;;;;;;;5049430;28;20033;-66
2023/07/20 08:34:08;;;;;;;0.93;0.93;;;;;;;;;;5050175;28;20028;-66
2023/07/20 08:36:33;;;;;;;4.53;1.48;;;;;;;;;;5049229;28;20049;-66
2023/07/20 08:38:59;;;;;;;2.97;1.10;;;;;;;;;;5050589;28;20033;-67
2023/07/20 08:41:24;;;;;;;1.17;1.02;;;;;;;;;;5048981;28;20557;-67
2023/07/20 08:43:50;;;;;;;4.37;1.93;;;;;;;;;;5050817;28;20025;-67
2023/07/20 08:46:16;;;;;;;2.25;1.77;;;;;;;;;;5048777;28;20452;-66
2023/07/20 08:48:42;;;;;;;13.30;2.33;;;;;;;;;;5050432;28;20025;-66
2023/07/20 08:51:07;;;;;;;4.07;1.20;;;;;;;;;;5049169;28;20021;-66
2023/07/20 08:53:33;;;;;;;20.03;2.30;;;;;;;;;;5050817;28;20035;-67
2023/07/20 08:55:59;;;;;;;1.52;1.42;;;;;;;;;;5049979;28;20028;-67
2023/07/20 08:58:26;;;;;;;1.10;0.90;;;;;;;;;;5049366;28;20567;-67
2023/07/20 09:00:52;;;;;;;2.20;1.45;;;;;;;;;;5050746;28;20033;-66
2023/07/20 09:03:19;;;;;;;1.75;1.65;;;;;;;;;;5048761;28;20507;-66
2023/07/20 09:05:44;;;;;;;1.00;0.90;;;;;;;;;;5048852;28;20025;-67
2023/07/20 09:08:09;;;;;;;4.03;0.90;;;;;;;;;;5048984;28;20037;-67
2023/07/20 09:10:34;;;;;;;1.55;1.45;;;;;;;;;;5050158;28;20026;-67
2023/07/20 09:13:00;;;;;;;1.63;1.25;;;;;;;;;;5065118;28;20037;-67
2023/07/20 09:15:25;;;;;;;3.70;1.13;;;;;;;;;;5070763;28;20013;-71
2023/07/20 09:17:50;;;;;;;3.47;1.20;;;;;;;;;;5068955;28;20622;-67
2023/07/20 09:20:17;;;;;;;1.40;1.10;;;;;;;;;;5069675;28;20024;-67
2023/07/20 09:22:42;;;;;;;0.85;0.70;;;;;;;;;;5069029;28;20119;-67
2023/07/20 09:25:17;;;;;;;2.63;0.90;;;;;;;;;;5059976;28;20092;-67
2023/07/20 09:27:43;;;;;;;1.40;0.95;;;;;;;;;;5067871;28;20112;-67
2023/07/20 09:30:10;;;;;;;1.88;0.80;;;;;;;;;;5068830;28;20024;-67
2023/07/20 09:32:40;;;;;;;1.75;0.80;;;;;;;;;;5068659;28;20033;-67
2023/07/20 09:35:06;;;;;;;1.55;0.80;;;;;;;;;;5069549;28;20115;-66
2023/07/20 09:37:32;;;;;;;1.50;1.25;;;;;;;;;;5068888;28;20511;-67
2023/07/20 09:39:58;;;;;;;1.23;0.80;;;;;;;;;;5070199;28;20047;-67
2023/07/20 09:42:25;;;;;;;4.95;1.00;;;;;;;;;;5070223;28;20487;-67
2023/07/20 09:44:50;;;;;;;0.98;0.98;;;;;;;;;;5068588;28;20017;-67
2023/07/20 09:47:21;;;;;;;0.70;0.70;;;;;;;;;;5070916;28;20041;-67
2023/07/20 09:49:46;;;;;;;1.08;0.98;;;;;;;;;;5072195;28;20051;-67
2023/07/20 09:52:12;;;;;;;2.57;2.37;;;;;;;;;;5052180;28;20067;-67
2023/07/20 09:54:38;;;;;;;2.45;0.98;;;;;;;;;;5053771;28;20464;-73
2023/07/20 09:57:04;;;;;;;1.35;0.68;;;;;;;;;;5050150;28;20037;-67
2023/07/20 09:59:29;;;;;;;6.32;1.92;;;;;;;;;;5053557;28;20021;-67
2023/07/20 10:01:57;;;;;;;0.77;0.77;;;;;;;;;;5052100;28;20037;-66
2023/07/20 10:04:23;;;;;;;1.02;1.00;;;;;;;;;;5052883;28;20432;-67
2023/07/20 10:06:50;;;;;;;4.65;1.15;;;;;;;;;;5052022;28;20110;-67
2023/07/20 10:09:16;;;;;;;1.45;1.35;;;;;;;;;;5053234;28;20025;-67
2023/07/20 10:11:44;;;;;;;1.80;0.65;;;;;;;;;;5051452;28;20404;-67
2023/07/20 10:14:12;;;;;;;2.20;0.70;;;;;;;;;;5053539;28;20365;-67
2023/07/20 10:16:39;;;;;;;1.20;0.85;;;;;;;;;;5051984;28;20106;-67
2023/07/20 10:19:13;;;;;;;1.08;0.80;;;;;;;;;;5052687;28;20013;-66
2023/07/20 10:21:40;;;;;;;0.90;0.90;;;;;;;;;;5057214;28;20511;-67
2023/07/20 10:24:07;;;;;;;0.53;0.53;;;;;;;;;;5072921;28;20023;-67
2023/07/20 10:26:32;;;;;;;0.93;0.60;;;;;;;;;;5071033;28;20097;-67
2023/07/20 10:28:58;;;;;;;2.37;1.00;;;;;;;;;;5070518;28;20095;-67
2023/07/20 10:31:23;;;;;;;1.38;0.90;;;;;;;;;;5070530;28;20043;-68
2023/07/20 10:33:50;;;;;;;0.80;0.70;;;;;;;;;;5072288;28;20021;-66
2023/07/20 10:36:15;;;;;;;0.57;0.57;;;;;;;;;;5070867;28;20063;-66
2023/07/20 10:38:41;;;;;;;1.08;1.00;;;;;;;;;;5072452;28;20016;-67
2023/07/20 10:41:25;;;;;;;0.70;0.67;;;;;;;;;;5070715;28;20117;-67
2023/07/20 10:43:50;;;;;;;0.90;0.90;;;;;;;;;;5071426;28;20483;-67
2023/07/20 10:46:33;;;;;;;1.17;0.70;;;;;;;;;;5070655;28;20042;-67
2023/07/20 10:48:59;;;;;;;2.33;1.15;;;;;;;;;;5060530;28;20461;-67
2023/07/20 10:51:24;;;;;;;1.27;1.17;;;;;;;;;;5070069;28;20044;-67
2023/07/20 10:53:50;;;;;;;2.93;1.03;;;;;;;;;;5066332;28;20017;-68
2023/07/20 10:56:19;;;;;;;0.90;0.90;;;;;;;;;;5050509;28;20209;-68
2023/07/20 10:58:44;;;;;;;3.40;1.27;;;;;;;;;;5052439;28;20468;-68
2023/07/20 11:01:12;;;;;;;0.53;0.53;;;;;;;;;;5050548;28;20032;-67
2023/07/20 11:03:39;;;;;;;2.45;0.77;;;;;;;;;;5052045;28;20021;-68
2023/07/20 11:06:20;;;;;;;1.23;0.60;;;;;;;;;;5071846;28;20024;-68
2023/07/20 11:08:45;;;;;;;0.65;0.65;;;;;;;;;;5072137;28;20016;-68
2023/07/20 11:11:25;;;;;;;0.60;0.60;;;;;;;;;;5070331;28;20486;-68
2023/07/20 11:13:55;;;;;;;1.83;1.10;;;;;;;;;;5072318;28;20021;-68
2023/07/20 11:16:31;;;;;;;1.48;0.60;;;;;;;;;;5070374;28;20617;-68
2023/07/20 11:18:57;;;;;;;0.82;0.68;;;;;;;;;;5072029;28;20044;-68
2023/07/20 11:21:22;;;;;;;2.30;0.98;;;;;;;;;;5069810;28;20036;-68
2023/07/20 11:23:48;;;;;;;1.17;1.00;;;;;;;;;;5072298;28;20028;-74
2023/07/20 11:26:13;;;;;;;0.80;0.80;;;;;;;;;;5069869;28;20449;-68
2023/07/20 11:28:38;;;;;;;1.13;1.00;;;;;;;;;;5071825;28;20421;-68
2023/07/20 11:31:03;;;;;;;2.77;1.57;;;;;;;;;;5070170;28;20091;-67
2023/07/20 11:33:29;;;;;;;1.38;0.60;;;;;;;;;;5071547;28;20024;-68
2023/07/20 11:35:54;;;;;;;0.80;0.80;;;;;;;;;;5071221;28;20063;-68
2023/07/20 11:38:19;;;;;;;1.93;1.10;;;;;;;;;;5065550;28;20090;-68
2023/07/20 11:40:45;;;;;;;4.23;1.10;;;;;;;;;;5071197;28;20070;-68
2023/07/20 11:43:11;;;;;;;1.15;1.05;;;;;;;;;;5059157;28;20048;-68
2023/07/20 11:45:37;;;;;;;1.58;0.80;;;;;;;;;;5053837;28;20439;-68
2023/07/20 11:48:02;;;;;;;0.80;0.68;;;;;;;;;;5057620;28;20037;-69
2023/07/20 11:50:27;;;;;;;0.98;0.75;;;;;;;;;;5068430;28;20020;-68
2023/07/20 11:52:52;;;;;;;0.60;0.60;;;;;;;;;;5069963;28;20041;-68
2023/07/20 11:55:18;;;;;;;0.50;0.50;;;;;;;;;;5062158;28;20107;-68
2023/07/20 11:58:00;;;;;;;2.10;0.82;;;;;;;;;;5049597;28;20686;-71
2023/07/20 12:00:25;;;;;;;0.60;0.60;;;;;;;;;;5051632;28;20099;-70
2023/07/20 12:02:50;;;;;;;0.70;0.60;;;;;;;;;;5049484;28;20460;-69
2023/07/20 12:05:16;;;;;;;0.77;0.77;;;;;;;;;;5050471;28;20025;-68
2023/07/20 12:07:41;;;;;;;0.50;0.50;;;;;;;;;;5049763;28;20044;-68
2023/07/20 12:10:07;;;;;;;3.33;0.95;;;;;;;;;;5050518;28;20427;-68
2023/07/20 12:12:40;;;;;;;0.70;0.70;;;;;;;;;;5049857;28;20062;-68
2023/07/20 12:15:31;;;;;;;0.80;0.80;;;;;;;;;;5051096;28;20021;-68
2023/07/20 12:18:01;;;;;;;0.60;0.60;;;;;;;;;;5048055;28;20605;-68
2023/07/20 12:20:34;;;;;;;3.17;0.95;;;;;;;;;;5060619;28;20165;-68
2023/07/20 12:23:00;;;;;;;1.27;1.13;;;;;;;;;;5068298;28;20089;-69
2023/07/20 12:25:38;;;;;;;1.50;1.30;;;;;;;;;;5067861;28;20390;-68
2023/07/20 12:28:29;;;;;;;0.68;0.68;;;;;;;;;;5049148;28;20065;-70
2023/07/20 12:30:57;;;;;;;0.82;0.60;;;;;;;;;;5050223;28;20051;-70
2023/07/20 12:33:23;;;;;;;1.35;0.80;;;;;;;;;;5049201;28;20373;-69
2023/07/20 12:35:48;;;;;;;0.80;0.60;;;;;;;;;;5050803;28;20060;-70
2023/07/20 12:38:13;;;;;;;1.40;1.13;;;;;;;;;;5048770;28;20499;-70
2023/07/20 12:40:38;;;;;;;2.07;0.67;;;;;;;;;;5050681;28;20151;-70
2023/07/20 12:43:04;;;;;;;0.80;0.70;;;;;;;;;;5049279;28;20447;-70
2023/07/20 12:45:29;;;;;;;2.92;0.77;;;;;;;;;;5050699;28;20032;-70
2023/07/20 12:47:55;;;;;;;0.68;0.68;;;;;;;;;;5049272;28;20044;-70
2023/07/20 12:50:20;;;;;;;0.80;0.80;;;;;;;;;;5050464;28;20035;-70
2023/07/20 12:52:45;;;;;;;1.07;0.87;;;;;;;;;;5048957;28;20060;-69
2023/07/20 12:55:10;;;;;;;0.73;0.73;;;;;;;;;;5050243;28;20518;-69
2023/07/20 12:57:36;;;;;;;2.05;0.77;;;;;;;;;;5049088;28;20158;-70
2023/07/20 13:00:03;;;;;;;0.95;0.70;;;;;;;;;;5050690;28;20482;-69
2023/07/20 13:02:29;;;;;;;0.68;0.68;;;;;;;;;;5048799;28;20041;-69
2023/07/20 13:04:54;;;;;;;0.73;0.70;;;;;;;;;;5050612;28;20047;-69
2023/07/20 13:07:28;;;;;;;0.70;0.70;;;;;;;;;;5048939;28;20540;-69
2023/07/20 13:09:53;;;;;;;0.70;0.70;;;;;;;;;;5049888;28;20438;-69
2023/07/20 13:12:18;;;;;;;0.57;0.55;;;;;;;;;;5048984;28;20045;-69
2023/07/20 13:14:44;;;;;;;4.22;0.93;;;;;;;;;;5050621;28;20464;-69
2023/07/20 13:17:10;;;;;;;1.23;0.98;;;;;;;;;;5051854;28;20033;-69
2023/07/20 13:19:35;;;;;;;1.02;0.93;;;;;;;;;;5054555;28;20021;-69
2023/07/20 13:22:00;;;;;;;1.20;1.10;;;;;;;;;;5052752;28;20044;-69
2023/07/20 13:24:25;;;;;;;1.27;0.80;;;;;;;;;;5060005;28;20028;-69
2023/07/20 13:26:51;;;;;;;0.88;0.88;;;;;;;;;;5071655;28;20040;-69
2023/07/20 13:29:17;;;;;;;1.38;0.90;;;;;;;;;;5073785;28;20083;-74
2023/07/20 13:31:42;;;;;;;1.38;1.13;;;;;;;;;;5052770;28;20120;-69
2023/07/20 13:34:07;;;;;;;0.60;0.60;;;;;;;;;;5053765;28;20029;-69
2023/07/20 13:36:32;;;;;;;1.75;0.77;;;;;;;;;;5052208;28;20099;-72
2023/07/20 13:38:58;;;;;;;3.03;1.48;;;;;;;;;;5053510;28;20020;-71
2023/07/20 13:41:23;;;;;;;1.38;1.00;;;;;;;;;;5052431;28;20048;-69
2023/07/20 13:43:48;;;;;;;1.67;0.83;;;;;;;;;;5072575;28;20017;-69
2023/07/20 13:46:13;;;;;;;1.15;1.10;;;;;;;;;;5070278;28;20055;-69
2023/07/20 13:48:38;;;;;;;2.97;0.98;;;;;;;;;;5073824;28;20019;-69
2023/07/20 13:51:03;;;;;;;5.05;1.00;;;;;;;;;;5071765;28;20020;-69
2023/07/20 13:53:29;;;;;;;3.23;1.10;;;;;;;;;;5073375;28;20471;-69
2023/07/20 13:55:56;;;;;;;0.88;0.75;;;;;;;;;;5073872;28;20058;-69
2023/07/20 13:58:22;;;;;;;1.00;0.75;;;;;;;;;;5050763;28;20454;-69
2023/07/20 14:00:47;;;;;;;1.93;1.43;;;;;;;;;;5067879;28;20167;-69
2023/07/20 14:03:12;;;;;;;3.67;0.88;;;;;;;;;;5051932;28;20538;-69
2023/07/20 14:05:37;;;;;;;4.80;1.27;;;;;;;;;;5053393;28;20017;-69
2023/07/20 14:08:02;;;;;;;0.70;0.60;;;;;;;;;;5051222;28;20040;-69
2023/07/20 14:10:27;;;;;;;0.87;0.67;;;;;;;;;;5053526;28;20427;-69
2023/07/20 14:12:53;;;;;;;0.70;0.70;;;;;;;;;;5067851;28;20475;-69
2023/07/20 14:15:19;;;;;;;0.90;0.90;;;;;;;;;;5072888;28;20024;-69
2023/07/20 14:17:44;;;;;;;1.63;0.98;;;;;;;;;;5071799;28;20055;-69
2023/07/20 14:20:09;;;;;;;1.38;1.27;;;;;;;;;;5055643;28;20567;-69
2023/07/20 14:22:34;;;;;;;1.95;0.85;;;;;;;;;;5051404;28;20037;-69
2023/07/20 14:24:59;;;;;;;0.70;0.60;;;;;;;;;;5053245;28;20028;-67
2023/07/20 14:27:25;;;;;;;1.77;0.93;;;;;;;;;;5051036;28;20101;-67
2023/07/20 14:29:50;;;;;;;3.03;1.05;;;;;;;;;;5052543;28;20025;-67